createdAt,value
2016-07-04T00:00:29.352Z,14.99
2016-07-04T00:01:29.354Z,14.91
2016-07-04T00:02:29.382Z,14.86
2016-07-04T00:03:29.409Z,14.88
2016-07-04T00:04:29.429Z,14.86
2016-07-04T00:05:29.434Z,14.86
2016-07-04T00:06:29.461Z,14.85
2016-07-04T00:07:29.479Z,14.82
2016-07-04T00:08:29.499Z,14.86
2016-07-04T00:09:29.516Z,14.81
2016-07-04T00:10:29.533Z,14.82
2016-07-04T00:11:29.546Z,14.77
2016-07-04T00:12:29.572Z,14.65
2016-07-04T00:13:29.590Z,14.68
2016-07-04T00:14:29.613Z,14.59
2016-07-04T00:15:29.632Z,14.6
2016-07-04T00:16:29.645Z,14.55
2016-07-04T00:17:29.664Z,14.6
2016-07-04T00:18:29.679Z,14.47
2016-07-04T00:19:29.706Z,14.47
2016-07-04T00:20:29.719Z,14.47
2016-07-04T00:21:29.745Z,14.51
2016-07-04T00:22:29.751Z,14.41
2016-07-04T00:23:29.758Z,14.47
2016-07-04T00:24:29.792Z,14.28
2016-07-04T00:25:29.806Z,14.33
2016-07-04T00:26:29.823Z,14.35
2016-07-04T00:27:29.848Z,14.3
2016-07-04T00:28:29.865Z,14.26
2016-07-04T00:29:29.885Z,14.22
2016-07-04T00:30:29.890Z,14.23
2016-07-04T00:31:29.921Z,14.23
2016-07-04T00:32:29.936Z,14.33
2016-07-04T00:33:29.959Z,14.25
2016-07-04T00:34:29.962Z,14.28
2016-07-04T00:35:30.000Z,14.22
2016-07-04T00:36:30.007Z,14.18
2016-07-04T00:37:30.037Z,14.2
2016-07-04T00:38:30.045Z,14.1
2016-07-04T00:39:30.062Z,14.17
2016-07-04T00:40:30.079Z,14.18
2016-07-04T00:41:30.106Z,14.17
2016-07-04T00:42:30.109Z,14.17
2016-07-04T00:43:30.140Z,14.17
2016-07-04T00:44:30.149Z,14.18
2016-07-04T00:45:30.178Z,14.15
2016-07-04T00:46:30.182Z,14.07
2016-07-04T00:47:30.206Z,14.1
2016-07-04T00:48:30.235Z,14.04
2016-07-04T00:49:30.242Z,14.05
2016-07-04T00:50:30.257Z,14.08
2016-07-04T00:51:30.285Z,14.14
2016-07-04T00:52:30.295Z,14.1
2016-07-04T00:53:30.310Z,14.11
2016-07-04T00:54:30.330Z,14.1
2016-07-04T00:55:30.352Z,14.17
2016-07-04T00:56:30.371Z,14.15
2016-07-04T00:57:30.393Z,14.17
2016-07-04T00:58:30.411Z,14.17
2016-07-04T00:59:30.422Z,14.12
2016-07-04T01:00:30.439Z,14.17
2016-07-04T01:01:30.459Z,14.15
2016-07-04T01:02:30.483Z,14.15
2016-07-04T01:03:30.499Z,14.18
2016-07-04T01:04:30.508Z,14.2
2016-07-04T01:05:30.534Z,14.18
2016-07-04T01:06:30.548Z,14.2
2016-07-04T01:07:30.744Z,14.22
2016-07-04T01:08:30.749Z,14.14
2016-07-04T01:09:30.609Z,14.28
2016-07-04T01:10:30.625Z,14.18
2016-07-04T01:11:30.638Z,14.2
2016-07-04T01:12:30.663Z,14.29
2016-07-04T01:13:30.679Z,14.3
2016-07-04T01:14:30.696Z,14.29
2016-07-04T01:15:30.703Z,14.28
2016-07-04T01:16:30.726Z,14.32
2016-07-04T01:17:30.750Z,14.44
2016-07-04T01:18:30.752Z,14.41
2016-07-04T01:19:30.786Z,14.47
2016-07-04T01:20:30.802Z,14.48
2016-07-04T01:21:30.827Z,14.45
2016-07-04T01:22:30.829Z,14.51
2016-07-04T01:23:30.862Z,14.45
2016-07-04T01:24:30.866Z,14.53
2016-07-04T01:25:30.899Z,14.45
2016-07-04T01:26:30.904Z,14.55
2016-07-04T01:27:30.935Z,14.48
2016-07-04T01:28:30.948Z,14.44
2016-07-04T01:29:30.967Z,14.54
2016-07-04T01:30:30.982Z,14.51
2016-07-04T01:31:31.008Z,14.43
2016-07-04T01:32:31.018Z,14.5
2016-07-04T01:33:31.044Z,14.51
2016-07-04T01:34:31.049Z,14.53
2016-07-04T01:35:31.073Z,14.45
2016-07-04T01:36:31.089Z,14.48
2016-07-04T01:37:31.114Z,14.47
2016-07-04T01:38:31.128Z,14.53
2016-07-04T01:39:31.139Z,14.55
2016-07-04T01:40:31.157Z,14.41
2016-07-04T01:41:31.181Z,14.58
2016-07-04T01:42:31.188Z,14.58
2016-07-04T01:43:31.208Z,14.58
2016-07-04T01:44:31.237Z,14.54
2016-07-04T01:45:31.249Z,14.54
2016-07-04T01:46:31.269Z,14.58
2016-07-04T01:47:31.285Z,14.62
2016-07-04T01:48:31.306Z,14.6
2016-07-04T01:49:31.314Z,14.6
2016-07-04T01:50:31.340Z,14.63
2016-07-04T01:51:31.357Z,14.53
2016-07-04T01:52:31.379Z,14.58
2016-07-04T01:53:31.394Z,14.59
2016-07-04T01:54:31.412Z,14.59
2016-07-04T01:55:31.436Z,14.55
2016-07-04T01:56:31.451Z,14.6
2016-07-04T01:57:31.466Z,14.63
2016-07-04T01:58:31.479Z,14.63
2016-07-04T01:59:31.491Z,14.6
2016-07-04T02:00:31.537Z,14.58
2016-07-04T02:01:31.536Z,14.58
2016-07-04T02:02:31.553Z,14.63
2016-07-04T02:03:31.562Z,14.63
2016-07-04T02:04:31.594Z,14.63
2016-07-04T02:05:31.619Z,14.6
2016-07-04T02:06:31.631Z,14.6
2016-07-04T02:07:31.651Z,14.54
2016-07-04T02:08:31.727Z,14.5
2016-07-04T02:09:31.962Z,14.55
2016-07-04T02:10:31.866Z,14.58
2016-07-04T02:11:31.951Z,14.45
2016-07-04T02:12:31.738Z,14.53
2016-07-04T02:13:31.974Z,14.48
2016-07-04T02:14:31.778Z,14.6
2016-07-04T02:15:32.025Z,14.55
2016-07-04T02:16:31.970Z,14.47
2016-07-04T02:17:31.839Z,14.45
2016-07-04T02:18:31.852Z,14.43
2016-07-04T02:19:31.866Z,14.48
2016-07-04T02:20:31.887Z,14.45
2016-07-04T02:21:31.913Z,14.5
2016-07-04T02:22:31.917Z,14.43
2016-07-04T02:23:31.944Z,14.47
2016-07-04T02:24:31.958Z,14.44
2016-07-04T02:25:31.971Z,14.5
2016-07-04T02:26:31.993Z,14.54
2016-07-04T02:27:32.014Z,14.43
2016-07-04T02:28:32.036Z,14.44
2016-07-04T02:29:32.050Z,14.44
2016-07-04T02:30:32.063Z,14.53
2016-07-04T02:31:32.098Z,14.53
2016-07-04T02:32:32.100Z,14.54
2016-07-04T02:33:32.145Z,14.53
2016-07-04T02:34:32.141Z,14.55
2016-07-04T02:35:32.166Z,14.44
2016-07-04T02:36:32.171Z,14.47
2016-07-04T02:37:32.194Z,14.53
2016-07-04T02:38:32.208Z,14.4
2016-07-04T02:39:32.231Z,14.45
2016-07-04T02:40:32.237Z,14.54
2016-07-04T02:41:32.256Z,14.47
2016-07-04T02:42:32.277Z,14.53
2016-07-04T02:43:32.303Z,14.48
2016-07-04T02:44:32.322Z,14.4
2016-07-04T02:45:32.328Z,14.55
2016-07-04T02:46:32.347Z,14.45
2016-07-04T02:47:32.368Z,14.44
2016-07-04T02:48:32.378Z,14.43
2016-07-04T02:49:32.408Z,14.41
2016-07-04T02:50:32.412Z,14.44
2016-07-04T02:51:32.441Z,14.41
2016-07-04T02:52:32.454Z,14.54
2016-07-04T02:53:32.484Z,14.43
2016-07-04T02:54:32.495Z,14.47
2016-07-04T02:55:32.511Z,14.51
2016-07-04T02:56:32.527Z,14.45
2016-07-04T02:57:32.554Z,14.36
2016-07-04T02:58:32.566Z,14.29
2016-07-04T02:59:32.598Z,14.4
2016-07-04T03:00:32.600Z,14.44
2016-07-04T03:01:32.606Z,14.29
2016-07-04T03:02:32.641Z,14.3
2016-07-04T03:03:32.655Z,14.4
2016-07-04T03:04:32.670Z,14.3
2016-07-04T03:05:32.696Z,14.25
2016-07-04T03:06:32.705Z,14.28
2016-07-04T03:07:32.763Z,14.2
2016-07-04T03:08:32.763Z,14.22
2016-07-04T03:09:32.781Z,14.15
2016-07-04T03:10:32.788Z,14.2
2016-07-04T03:11:32.805Z,14.04
2016-07-04T03:12:32.813Z,14.11
2016-07-04T03:13:32.877Z,14.12
2016-07-04T03:14:32.856Z,14.04
2016-07-04T03:15:32.905Z,14.03
2016-07-04T03:16:32.933Z,13.99
2016-07-04T03:17:32.948Z,13.97
2016-07-04T03:18:32.970Z,13.97
2016-07-04T03:19:32.967Z,13.99
2016-07-04T03:20:32.976Z,13.96
2016-07-04T03:21:32.965Z,13.97
2016-07-04T03:22:32.982Z,14
2016-07-04T03:23:33.014Z,14.03
2016-07-04T03:24:33.016Z,13.97
2016-07-04T03:25:33.051Z,13.97
2016-07-04T03:26:33.068Z,13.92
2016-07-04T03:27:33.081Z,13.86
2016-07-04T03:28:33.102Z,13.87
2016-07-04T03:29:33.121Z,13.9
2016-07-04T03:30:33.131Z,13.96
2016-07-04T03:31:33.162Z,13.87
2016-07-04T03:32:33.185Z,13.83
2016-07-04T03:33:33.187Z,13.92
2016-07-04T03:34:33.204Z,13.78
2016-07-04T03:35:33.218Z,13.79
2016-07-04T03:36:33.248Z,13.74
2016-07-04T03:37:33.270Z,13.78
2016-07-04T03:38:33.275Z,13.78
2016-07-04T03:39:33.303Z,13.77
2016-07-04T03:40:33.312Z,13.72
2016-07-04T03:41:33.331Z,13.75
2016-07-04T03:42:33.354Z,13.71
2016-07-04T03:43:33.371Z,13.71
2016-07-04T03:44:33.370Z,13.79
2016-07-04T03:45:33.399Z,13.72
2016-07-04T03:46:33.416Z,13.71
2016-07-04T03:47:33.447Z,13.75
2016-07-04T03:48:33.456Z,13.78
2016-07-04T03:49:33.476Z,13.78
2016-07-04T03:50:33.497Z,13.78
2016-07-04T03:51:33.513Z,13.79
2016-07-04T03:52:33.527Z,13.71
2016-07-04T03:53:33.554Z,13.85
2016-07-04T03:54:33.563Z,13.74
2016-07-04T03:55:33.577Z,13.79
2016-07-04T03:56:33.595Z,13.74
2016-07-04T03:57:33.627Z,13.71
2016-07-04T03:58:33.657Z,13.71
2016-07-04T03:59:33.660Z,13.74
2016-07-04T04:00:33.677Z,13.77
2016-07-04T04:01:33.693Z,13.9
2016-07-04T04:02:33.714Z,13.86
2016-07-04T04:03:33.717Z,13.93
2016-07-04T04:04:33.744Z,14
2016-07-04T04:05:33.774Z,14.11
2016-07-04T04:06:33.780Z,14.1
2016-07-04T04:07:33.796Z,14.18
2016-07-04T04:08:33.814Z,14.28
2016-07-04T04:09:33.834Z,14.29
2016-07-04T04:10:33.846Z,14.35
2016-07-04T04:11:33.867Z,14.36
2016-07-04T04:12:33.891Z,14.45
2016-07-04T04:13:33.904Z,14.59
2016-07-04T04:14:33.916Z,14.66
2016-07-04T04:15:33.943Z,14.63
2016-07-04T04:16:33.948Z,14.81
2016-07-04T04:17:33.978Z,14.81
2016-07-04T04:18:33.998Z,14.97
2016-07-04T04:19:34.025Z,15.07
2016-07-04T04:20:34.042Z,15.11
2016-07-04T04:21:34.051Z,15.21
2016-07-04T04:22:34.070Z,15.31
2016-07-04T04:23:34.086Z,15.39
2016-07-04T04:24:34.114Z,15.37
2016-07-04T04:25:34.124Z,15.51
2016-07-04T04:26:34.156Z,15.59
2016-07-04T04:27:34.160Z,15.64
2016-07-04T04:28:34.180Z,15.72
2016-07-04T04:29:34.206Z,15.76
2016-07-04T04:30:34.210Z,15.77
2016-07-04T04:31:34.239Z,15.94
2016-07-04T04:32:34.252Z,15.98
2016-07-04T04:33:34.933Z,15.94
2016-07-04T04:34:34.288Z,15.98
2016-07-04T04:35:34.317Z,15.97
2016-07-04T04:36:34.325Z,15.79
2016-07-04T04:37:34.344Z,15.75
2016-07-04T04:38:34.361Z,15.72
2016-07-04T04:39:34.391Z,15.77
2016-07-04T04:40:34.406Z,15.75
2016-07-04T04:41:34.428Z,15.94
2016-07-04T04:42:34.430Z,15.91
2016-07-04T04:43:34.452Z,15.9
2016-07-04T04:44:34.469Z,15.83
2016-07-04T04:45:34.504Z,15.95
2016-07-04T04:46:34.513Z,16.01
2016-07-04T04:47:34.534Z,15.98
2016-07-04T04:48:34.555Z,16.15
2016-07-04T04:49:34.576Z,16.17
2016-07-04T04:50:34.586Z,16.42
2016-07-04T04:51:34.618Z,16.54
2016-07-04T04:52:34.629Z,16.66
2016-07-04T04:53:34.646Z,16.54
2016-07-04T04:54:34.679Z,16.74
2016-07-04T04:55:34.696Z,16.56
2016-07-04T04:56:34.712Z,16.61
2016-07-04T04:57:34.726Z,16.66
2016-07-04T04:58:34.742Z,16.64
2016-07-04T04:59:34.778Z,16.61
2016-07-04T05:00:34.782Z,16.53
2016-07-04T05:01:34.805Z,16.57
2016-07-04T05:02:34.822Z,16.53
2016-07-04T05:03:34.851Z,16.64
2016-07-04T05:04:34.855Z,16.66
2016-07-04T05:05:34.889Z,16.51
2016-07-04T05:06:34.900Z,16.56
2016-07-04T05:07:34.929Z,16.58
2016-07-04T05:08:34.945Z,16.58
2016-07-04T05:09:34.952Z,16.56
2016-07-04T05:10:34.978Z,16.54
2016-07-04T05:11:34.995Z,16.54
2016-07-04T05:12:35.025Z,16.54
2016-07-04T05:13:35.035Z,16.57
2016-07-04T05:14:35.053Z,16.57
2016-07-04T05:15:35.067Z,16.65
2016-07-04T05:16:35.089Z,16.57
2016-07-04T05:17:35.113Z,16.61
2016-07-04T05:18:35.128Z,16.64
2016-07-04T05:19:35.158Z,16.65
2016-07-04T05:20:35.164Z,16.66
2016-07-04T05:21:35.192Z,16.76
2016-07-04T05:22:35.203Z,16.72
2016-07-04T05:23:35.260Z,16.75
2016-07-04T05:24:35.287Z,16.69
2016-07-04T05:25:35.313Z,16.75
2016-07-04T05:26:35.328Z,16.76
2016-07-04T05:27:35.343Z,16.75
2016-07-04T05:28:35.350Z,16.75
2016-07-04T05:29:35.347Z,16.78
2016-07-04T05:30:35.364Z,16.75
2016-07-04T05:31:35.386Z,16.81
2016-07-04T05:32:35.396Z,16.74
2016-07-04T05:33:35.424Z,16.78
2016-07-04T05:34:35.434Z,16.84
2016-07-04T05:35:35.463Z,16.87
2016-07-04T05:36:35.552Z,16.93
2016-07-04T05:37:35.723Z,17.05
2016-07-04T05:38:36.667Z,16.97
2016-07-04T05:39:35.948Z,17.05
2016-07-04T05:40:35.540Z,17.11
2016-07-04T05:41:35.562Z,17.11
2016-07-04T05:42:35.736Z,17.11
2016-07-04T05:43:35.606Z,17.19
2016-07-04T05:44:35.625Z,17.11
2016-07-04T05:45:35.632Z,17.16
2016-07-04T05:46:35.651Z,17.15
2016-07-04T05:47:35.684Z,17.24
2016-07-04T05:48:35.695Z,17.22
2016-07-04T05:49:35.726Z,17.3
2016-07-04T05:50:35.855Z,17.34
2016-07-04T05:51:35.965Z,17.38
2016-07-04T05:52:35.786Z,17.36
2016-07-04T05:53:35.978Z,17.44
2016-07-04T05:54:35.812Z,17.39
2016-07-04T05:55:35.834Z,17.51
2016-07-04T05:56:36.085Z,17.56
2016-07-04T05:57:35.942Z,17.56
2016-07-04T05:58:35.907Z,17.63
2016-07-04T05:59:35.912Z,17.67
2016-07-04T06:00:35.942Z,17.7
2016-07-04T06:01:35.967Z,17.71
2016-07-04T06:02:35.987Z,17.79
2016-07-04T06:03:35.996Z,17.83
2016-07-04T06:04:36.019Z,17.79
2016-07-04T06:05:36.110Z,17.86
2016-07-04T06:06:36.064Z,17.87
2016-07-04T06:07:36.071Z,17.85
2016-07-04T06:08:36.100Z,17.94
2016-07-04T06:09:36.112Z,17.95
2016-07-04T06:10:36.140Z,18.04
2016-07-04T06:11:41.531Z,18
2016-07-04T06:12:36.169Z,17.98
2016-07-04T06:13:36.202Z,18.03
2016-07-04T06:14:36.248Z,18.03
2016-07-04T06:15:36.235Z,18.03
2016-07-04T06:16:36.253Z,18.05
2016-07-04T06:17:36.280Z,18.18
2016-07-04T06:18:36.295Z,18.11
2016-07-04T06:19:36.444Z,18.33
2016-07-04T06:20:36.336Z,18.28
2016-07-04T06:21:36.360Z,18.37
2016-07-04T06:22:37.041Z,18.43
2016-07-04T06:23:36.412Z,18.43
2016-07-04T06:24:36.417Z,18.49
2016-07-04T06:25:36.443Z,18.56
2016-07-04T06:26:36.460Z,18.62
2016-07-04T06:27:36.476Z,18.66
2016-07-04T06:28:36.501Z,18.81
2016-07-04T06:29:37.422Z,18.84
2016-07-04T06:30:36.671Z,18.95
2016-07-04T06:31:37.262Z,19.04
2016-07-04T06:32:36.813Z,19
2016-07-04T06:33:36.611Z,19.16
2016-07-04T06:34:36.659Z,19.14
2016-07-04T06:35:36.741Z,19.15
2016-07-04T06:36:36.653Z,19.26
2016-07-04T06:37:36.893Z,19.24
2016-07-04T06:38:36.701Z,19.41
2016-07-04T06:39:36.727Z,19.55
2016-07-04T06:40:37.366Z,19.59
2016-07-04T06:41:36.765Z,19.82
2016-07-04T06:42:36.791Z,19.96
2016-07-04T06:43:36.811Z,20.24
2016-07-04T06:44:36.821Z,20.19
2016-07-04T06:45:36.847Z,20.22
2016-07-04T06:46:36.863Z,20.19
2016-07-04T06:47:36.957Z,20.28
2016-07-04T06:48:36.947Z,20.44
2016-07-04T06:49:36.936Z,20.39
2016-07-04T06:50:36.954Z,20.6
2016-07-04T06:51:36.968Z,20.56
2016-07-04T06:52:36.988Z,20.39
2016-07-04T06:53:37.020Z,20.39
2016-07-04T06:54:37.114Z,20.58
2016-07-04T06:55:37.052Z,20.6
2016-07-04T06:56:37.084Z,20.67
2016-07-04T06:57:37.099Z,20.63
2016-07-04T06:58:37.129Z,20.69
2016-07-04T06:59:37.136Z,20.9
2016-07-04T07:00:37.165Z,20.93
2016-07-04T07:01:37.187Z,21.02
2016-07-04T07:02:37.203Z,21
2016-07-04T07:03:37.255Z,21.05
2016-07-04T07:04:37.254Z,21.14
2016-07-04T07:05:37.277Z,21.24
2016-07-04T07:06:37.294Z,21.29
2016-07-04T07:07:37.324Z,21.52
2016-07-04T07:08:37.366Z,21.6
2016-07-04T07:09:37.405Z,21.66
2016-07-04T07:10:37.415Z,21.64
2016-07-04T07:11:37.452Z,21.61
2016-07-04T07:12:37.479Z,21.61
2016-07-04T07:13:37.477Z,21.6
2016-07-04T07:14:37.476Z,21.58
2016-07-04T07:15:37.497Z,21.48
2016-07-04T07:16:37.853Z,21.3
2016-07-04T07:17:37.535Z,21.27
2016-07-04T07:18:37.561Z,21.15
2016-07-04T07:19:37.576Z,21.05
2016-07-04T07:20:37.606Z,21.02
2016-07-04T07:21:37.626Z,21.02
2016-07-04T07:22:37.648Z,21.05
2016-07-04T07:23:37.666Z,21.05
2016-07-04T07:24:37.694Z,20.99
2016-07-04T07:25:37.705Z,21.02
2016-07-04T07:26:37.732Z,21.06
2016-07-04T07:27:37.770Z,21.05
2016-07-04T07:28:37.771Z,21.09
2016-07-04T07:29:37.795Z,21.32
2016-07-04T07:30:37.815Z,21.48
2016-07-04T07:31:37.846Z,21.6
2016-07-04T07:32:37.889Z,21.6
2016-07-04T07:33:37.892Z,21.5
2016-07-04T07:34:37.913Z,21.39
2016-07-04T07:35:37.919Z,21.29
2016-07-04T07:36:37.959Z,21.42
2016-07-04T07:37:38.810Z,21.37
2016-07-04T07:38:37.998Z,21.4
2016-07-04T07:39:38.002Z,21.32
2016-07-04T07:40:38.030Z,21.36
2016-07-04T07:41:38.047Z,21.5
2016-07-04T07:42:38.081Z,21.52
2016-07-04T07:43:38.094Z,21.76
2016-07-04T07:44:38.130Z,21.73
2016-07-04T07:45:38.137Z,21.67
2016-07-04T07:46:38.162Z,21.66
2016-07-04T07:47:38.218Z,21.69
2016-07-04T07:48:38.215Z,21.58
2016-07-04T07:49:38.220Z,21.6
2016-07-04T07:50:38.258Z,21.64
2016-07-04T07:51:38.534Z,21.73
2016-07-04T07:52:38.294Z,21.77
2016-07-04T07:53:38.315Z,21.55
2016-07-04T07:54:38.339Z,21.5
2016-07-04T07:55:38.358Z,21.45
2016-07-04T07:56:38.384Z,21.35
2016-07-04T07:57:39.068Z,21.33
2016-07-04T07:58:38.724Z,21.4
2016-07-04T07:59:38.450Z,21.4
2016-07-04T08:00:38.474Z,21.45
2016-07-04T08:01:38.490Z,21.48
2016-07-04T08:02:38.513Z,21.61
2016-07-04T08:03:38.530Z,21.54
2016-07-04T08:04:38.554Z,21.54
2016-07-04T08:05:38.574Z,21.66
2016-07-04T08:06:38.615Z,21.73
2016-07-04T08:07:38.674Z,21.82
2016-07-04T08:08:38.763Z,21.83
2016-07-04T08:09:38.660Z,21.91
2016-07-04T08:10:38.694Z,21.99
2016-07-04T08:11:38.712Z,22.06
2016-07-04T08:12:39.327Z,22.15
2016-07-04T08:13:38.952Z,22.18
2016-07-04T08:14:38.779Z,22.2
2016-07-04T08:15:38.802Z,22.18
2016-07-04T08:16:38.826Z,22.15
2016-07-04T08:17:38.941Z,22.13
2016-07-04T08:18:38.880Z,22.1
2016-07-04T08:19:38.898Z,22.07
2016-07-04T08:20:38.901Z,22.11
2016-07-04T08:21:38.933Z,22.08
2016-07-04T08:22:38.969Z,21.96
2016-07-04T08:23:39.596Z,22.04
2016-07-04T08:24:39.060Z,22.07
2016-07-04T08:25:39.008Z,22.15
2016-07-04T08:26:39.823Z,22.18
2016-07-04T08:27:43.365Z,22.38
2016-07-04T08:28:39.087Z,22.43
2016-07-04T08:29:39.096Z,22.6
2016-07-04T08:30:39.119Z,22.62
2016-07-04T08:31:39.136Z,22.73
2016-07-04T08:32:39.172Z,22.76
2016-07-04T08:33:39.209Z,22.83
2016-07-04T08:34:39.213Z,22.81
2016-07-04T08:35:39.234Z,22.91
2016-07-04T08:36:39.259Z,22.91
2016-07-04T08:37:39.276Z,22.96
2016-07-04T08:38:39.306Z,22.91
2016-07-04T08:39:39.338Z,22.9
2016-07-04T08:40:39.350Z,22.76
2016-07-04T08:41:39.366Z,22.54
2016-07-04T08:42:39.380Z,22.48
2016-07-04T08:43:39.407Z,22.1
2016-07-04T08:44:39.439Z,21.99
2016-07-04T08:45:39.457Z,21.88
2016-07-04T08:46:39.480Z,21.72
2016-07-04T08:47:39.510Z,21.8
2016-07-04T08:48:39.602Z,21.98
2016-07-04T08:49:39.552Z,22.17
2016-07-04T08:51:00.443Z,22.25
2016-07-04T08:52:11.704Z,22.33
2016-07-04T08:52:53.279Z,22.28
2016-07-04T08:54:11.632Z,22.18
2016-07-04T08:54:42.576Z,22.2
2016-07-04T08:55:39.680Z,22.11
2016-07-04T08:57:10.549Z,21.95
2016-07-04T08:57:39.714Z,21.96
2016-07-04T08:58:39.756Z,21.91
2016-07-04T08:59:39.897Z,21.88
2016-07-04T09:25:57.784Z,23.24
2016-07-04T09:26:57.803Z,23.24
2016-07-04T09:27:57.833Z,23.48
2016-07-04T09:28:57.846Z,23.61
2016-07-04T09:29:57.868Z,23.76
2016-07-04T09:30:57.892Z,23.54
2016-07-04T09:31:57.920Z,23.48
2016-07-04T09:32:57.928Z,23.69
2016-07-04T09:33:57.952Z,23.84
2016-07-04T09:34:57.957Z,23.96
2016-07-04T09:35:57.999Z,24.01
2016-07-04T09:36:58.030Z,24.18
2016-07-04T09:37:58.048Z,23.93
2016-07-04T09:38:58.056Z,23.92
2016-07-04T09:39:58.090Z,23.92
2016-07-04T09:40:58.102Z,23.81
2016-07-04T09:41:58.138Z,23.73
2016-07-04T09:42:58.145Z,23.58
2016-07-04T09:43:58.180Z,23.51
2016-07-04T09:44:58.202Z,23.46
2016-07-04T09:45:58.221Z,23.43
2016-07-04T09:46:58.248Z,23.48
2016-07-04T09:47:58.269Z,23.66
2016-07-04T09:48:58.281Z,23.62
2016-07-04T09:49:58.315Z,23.61
2016-07-04T09:50:58.360Z,23.62
2016-07-04T09:51:58.391Z,23.71
2016-07-04T09:52:58.387Z,23.74
2016-07-04T09:53:58.445Z,23.68
2016-07-04T09:54:58.438Z,23.59
2016-07-04T09:55:58.501Z,23.66
2016-07-04T09:56:58.490Z,23.8
2016-07-04T09:57:58.503Z,23.95
2016-07-04T09:58:58.531Z,23.91
2016-07-04T09:59:58.554Z,24.05
2016-07-04T10:00:58.580Z,24.05
2016-07-04T10:01:58.626Z,24.13
2016-07-04T10:02:58.622Z,24.16
2016-07-04T10:03:58.640Z,24.32
2016-07-04T10:04:58.667Z,24.45
2016-07-04T10:05:58.688Z,24.54
2016-07-04T10:06:58.723Z,24.7
2016-07-04T10:07:58.731Z,24.8
2016-07-04T10:08:58.758Z,24.69
2016-07-04T10:09:58.793Z,24.68
2016-07-04T10:10:58.820Z,24.8
2016-07-04T10:11:58.841Z,24.78
2016-07-04T10:12:58.872Z,24.81
2016-07-04T10:13:58.880Z,24.76
2016-07-04T10:14:58.899Z,24.78
2016-07-04T10:15:58.931Z,24.86
2016-07-04T10:16:58.954Z,24.88
2016-07-04T10:17:58.957Z,24.98
2016-07-04T10:18:58.987Z,25.16
2016-07-04T10:19:59.013Z,25.35
2016-07-04T10:20:59.034Z,25.35
2016-07-04T10:21:59.064Z,25.35
2016-07-04T10:22:59.083Z,25.41
2016-07-04T10:23:59.108Z,25.32
2016-07-04T10:24:59.143Z,25.1
2016-07-04T10:25:59.160Z,25.22
2016-07-04T10:26:59.183Z,25.22
2016-07-04T10:27:59.193Z,25.36
2016-07-04T10:28:59.238Z,25.38
2016-07-04T10:29:59.250Z,25.31
2016-07-04T10:30:59.273Z,24.98
2016-07-04T10:31:59.310Z,24.8
2016-07-04T10:32:59.330Z,24.68
2016-07-04T10:33:59.364Z,24.63
2016-07-04T10:34:59.371Z,24.35
2016-07-04T10:35:59.403Z,24.06
2016-07-04T10:36:59.425Z,23.96
2016-07-04T10:37:59.439Z,23.91
2016-07-04T10:38:59.473Z,23.87
2016-07-04T10:39:59.484Z,23.96
2016-07-04T10:40:59.524Z,23.84
2016-07-04T10:41:59.539Z,23.84
2016-07-04T10:42:59.564Z,23.93
2016-07-04T10:43:59.586Z,23.95
2016-07-04T10:44:59.616Z,23.96
2016-07-04T10:45:59.633Z,23.93
2016-07-04T10:46:59.655Z,23.86
2016-07-04T10:47:59.682Z,23.92
2016-07-04T10:48:59.711Z,23.91
2016-07-04T10:49:59.725Z,23.99
2016-07-04T10:50:59.768Z,23.91
2016-07-04T10:51:59.780Z,23.87
2016-07-04T10:52:59.801Z,23.88
2016-07-04T10:53:59.833Z,23.92
2016-07-04T10:54:59.847Z,23.87
2016-07-04T10:55:59.858Z,24.02
2016-07-04T10:56:59.887Z,24.18
2016-07-04T10:57:59.918Z,24.47
2016-07-04T10:58:59.951Z,24.6
2016-07-04T10:59:59.965Z,24.84
2016-07-04T11:00:59.976Z,24.85
2016-07-04T11:02:00.000Z,24.88
2016-07-04T11:03:00.031Z,24.8
2016-07-04T11:04:00.057Z,24.81
2016-07-04T11:05:00.075Z,24.89
2016-07-04T11:06:00.103Z,25.04
2016-07-04T11:07:00.118Z,25.08
2016-07-04T11:08:00.123Z,25.26
2016-07-04T11:09:00.173Z,25.31
2016-07-04T11:10:00.182Z,25.31
2016-07-04T11:11:00.219Z,25.4
2016-07-04T11:12:00.242Z,25.46
2016-07-04T11:13:00.266Z,25.5
2016-07-04T11:14:00.289Z,25.66
2016-07-04T11:15:00.316Z,25.7
2016-07-04T11:16:00.338Z,25.75
2016-07-04T11:17:00.371Z,25.72
2016-07-04T11:18:00.383Z,25.68
2016-07-04T11:19:00.444Z,25.68
2016-07-04T11:20:00.439Z,25.69
2016-07-04T11:21:00.453Z,25.66
2016-07-04T11:22:00.494Z,25.85
2016-07-04T11:23:00.550Z,25.84
2016-07-04T11:24:00.558Z,25.85
2016-07-04T11:25:00.546Z,25.83
2016-07-04T11:26:00.590Z,25.81
2016-07-04T11:27:00.590Z,25.88
2016-07-04T11:28:00.617Z,25.88
2016-07-04T11:29:00.658Z,25.99
2016-07-04T11:30:00.680Z,26.03
2016-07-04T11:31:00.710Z,26.31
2016-07-04T11:32:00.720Z,26.37
2016-07-04T11:33:00.751Z,26.47
2016-07-04T11:34:00.750Z,26.34
2016-07-04T11:35:00.796Z,26.22
2016-07-04T11:36:00.828Z,26.36
2016-07-04T11:37:00.849Z,26.44
2016-07-04T11:38:00.869Z,26.47
2016-07-04T11:39:00.893Z,26.56
2016-07-04T11:40:00.915Z,26.71
2016-07-04T11:41:00.948Z,26.68
2016-07-04T11:42:00.972Z,26.65
2016-07-04T11:43:00.984Z,26.48
2016-07-04T11:44:01.021Z,26.48
2016-07-04T11:45:01.020Z,26.55
2016-07-04T11:46:01.066Z,26.59
2016-07-04T11:47:01.097Z,26.51
2016-07-04T11:48:01.117Z,26.58
2016-07-04T11:49:01.126Z,26.68
2016-07-04T11:50:01.167Z,26.89
2016-07-04T11:51:01.177Z,27.05
2016-07-04T11:52:01.208Z,27
2016-07-04T11:53:01.237Z,27.03
2016-07-04T11:54:01.258Z,26.89
2016-07-04T11:55:01.282Z,26.97
2016-07-04T11:56:01.316Z,27.12
2016-07-04T11:57:01.343Z,27.3
2016-07-04T11:58:01.349Z,27.52
2016-07-04T11:59:01.388Z,27.7
2016-07-04T12:00:01.392Z,27.71
2016-07-04T12:01:01.436Z,27.71
2016-07-04T12:02:01.462Z,27.65
2016-07-04T12:03:01.485Z,27.55
2016-07-04T12:04:01.520Z,27.52
2016-07-04T12:05:01.537Z,27.45
2016-07-04T12:06:01.554Z,27.39
2016-07-04T12:07:01.583Z,27.52
2016-07-04T12:08:01.619Z,27.68
2016-07-04T12:09:01.635Z,27.85
2016-07-04T12:10:01.665Z,27.89
2016-07-04T12:11:01.688Z,27.85
2016-07-04T12:12:01.718Z,27.85
2016-07-04T12:13:01.734Z,28.05
2016-07-04T12:14:01.763Z,28.17
2016-07-04T12:15:01.793Z,28.15
2016-07-04T12:16:01.818Z,28.29
2016-07-04T12:17:01.843Z,28.37
2016-07-04T12:18:01.864Z,28.38
2016-07-04T12:19:01.888Z,28.05
2016-07-04T12:20:01.903Z,27.89
2016-07-04T12:21:01.942Z,27.75
2016-07-04T12:22:01.973Z,27.36
2016-07-04T12:23:01.993Z,27.15
2016-07-04T12:24:02.017Z,26.65
2016-07-04T12:25:02.049Z,26.34
2016-07-04T12:26:02.072Z,26.05
2016-07-04T12:27:02.097Z,26.06
2016-07-04T12:28:02.124Z,26.13
2016-07-04T12:29:02.150Z,26.38
2016-07-04T12:30:02.175Z,26.48
2016-07-04T12:31:02.194Z,26.66
2016-07-04T12:32:02.225Z,26.85
2016-07-04T12:33:02.248Z,27.08
2016-07-04T12:34:02.274Z,27.25
2016-07-04T12:35:02.296Z,27.14
2016-07-04T12:36:02.320Z,27.18
2016-07-04T12:37:02.343Z,27.2
2016-07-04T12:38:02.378Z,27.27
2016-07-04T12:39:02.392Z,27.32
2016-07-04T12:40:02.420Z,27
2016-07-04T12:41:02.442Z,26.89
2016-07-04T12:42:02.472Z,26.7
2016-07-04T12:43:02.493Z,26.59
2016-07-04T12:44:02.529Z,26.53
2016-07-04T12:45:02.548Z,26.34
2016-07-04T12:46:02.570Z,26.19
2016-07-04T12:47:02.597Z,26.22
2016-07-04T12:48:02.626Z,26.25
2016-07-04T12:49:02.646Z,26.33
2016-07-04T12:50:02.665Z,26.45
2016-07-04T12:51:02.695Z,26.52
2016-07-04T12:52:02.712Z,26.45
2016-07-04T12:53:02.733Z,26.56
2016-07-04T12:54:02.777Z,26.62
2016-07-04T12:55:02.787Z,26.52
2016-07-04T12:56:02.814Z,26.36
2016-07-04T12:57:02.834Z,26.1
2016-07-04T12:58:02.865Z,26
2016-07-04T12:59:02.889Z,25.8
2016-07-04T13:00:02.912Z,25.8
2016-07-04T13:01:02.938Z,25.69
2016-07-04T13:02:02.962Z,25.6
2016-07-04T13:03:02.997Z,25.81
2016-07-04T13:04:02.997Z,26.03
2016-07-04T13:05:03.023Z,26.15
2016-07-04T13:06:03.053Z,26.34
2016-07-04T13:07:03.096Z,26.33
2016-07-04T13:08:03.109Z,26.56
2016-07-04T13:09:03.127Z,26.83
2016-07-04T13:10:03.158Z,26.95
2016-07-04T13:11:03.173Z,27.17
2016-07-04T13:12:03.215Z,27.21
2016-07-04T13:13:03.221Z,27.22
2016-07-04T13:14:03.255Z,27.22
2016-07-04T13:15:03.286Z,27.17
2016-07-04T13:16:03.295Z,27.03
2016-07-04T13:17:03.330Z,26.71
2016-07-04T13:18:03.347Z,26.52
2016-07-04T13:19:03.369Z,26.47
2016-07-04T13:20:03.395Z,26.43
2016-07-04T13:21:03.426Z,26.36